Time;durP1;ratioP1;P1;durP2;ratioP2;P2;SDS_P1;SDS_P2;PMS_P1;PMS_P2;Temp;Humidity;BMP_temperature;BMP_pressure;BME280_temperature;BME280_humidity;BME280_pressure;Samples;Min_cycle;Max_cycle;Signal;HPM_P1;HPM_P2
2021/05/27 00:01:30;;;;;;;0.80;0.80;;;9.60;87.30;;;;;;5034478;28;20029;-80
2021/05/27 00:03:55;;;;;;;1.67;0.90;;;9.50;87.10;;;;;;5052496;28;20378;-77
2021/05/27 00:06:21;;;;;;;1.38;0.98;;;9.60;87.30;;;;;;5052857;28;20017;-79
2021/05/27 00:08:47;;;;;;;1.10;1.00;;;9.60;87.50;;;;;;5035135;28;20020;-78
2021/05/27 00:11:12;;;;;;;1.88;1.10;;;9.60;87.50;;;;;;5052404;28;20517;-78
2021/05/27 00:13:38;;;;;;;1.10;0.90;;;9.60;87.30;;;;;;5052428;28;20387;-78
2021/05/27 00:16:04;;;;;;;1.65;1.00;;;9.60;87.40;;;;;;5038315;28;20124;-76
2021/05/27 00:18:30;;;;;;;1.33;0.90;;;9.60;87.30;;;;;;5056411;28;20025;-79
2021/05/27 00:20:55;;;;;;;0.90;0.90;;;9.50;87.50;;;;;;5038279;28;20025;-79
2021/05/27 00:23:21;;;;;;;1.27;1.17;;;9.50;87.30;;;;;;5056167;28;20035;-79
2021/05/27 00:25:47;;;;;;;1.00;0.90;;;9.50;87.10;;;;;;5056042;28;20025;-78
2021/05/27 00:28:12;;;;;;;0.90;0.90;;;9.50;87.10;;;;;;5056124;28;20021;-79
2021/05/27 00:30:38;;;;;;;0.90;0.90;;;9.50;87.40;;;;;;5056353;28;20036;-78
2021/05/27 00:33:04;;;;;;;1.73;0.77;;;9.50;87.40;;;;;;5037817;28;20029;-77
2021/05/27 00:35:29;;;;;;;1.00;0.90;;;9.50;87.60;;;;;;5056727;28;20404;-78
2021/05/27 00:37:55;;;;;;;0.93;0.93;;;9.50;87.90;;;;;;5037960;28;20028;-78
2021/05/27 00:40:21;;;;;;;1.52;1.10;;;9.50;87.80;;;;;;5056192;28;20043;-78
2021/05/27 00:42:47;;;;;;;1.83;1.10;;;9.40;87.80;;;;;;5038331;28;20074;-78
2021/05/27 00:45:16;;;;;;;1.25;0.95;;;9.40;88.10;;;;;;5038386;28;20032;-78
2021/05/27 00:47:43;;;;;;;1.30;1.20;;;9.40;88.50;;;;;;5056282;28;20108;-77
2021/05/27 00:50:20;;;;;;;2.13;1.08;;;9.40;88.90;;;;;;5056648;28;20590;-78
2021/05/27 00:52:47;;;;;;;1.42;1.10;;;9.40;88.70;;;;;;5038713;28;20025;-77
2021/05/27 00:55:13;;;;;;;1.20;1.10;;;9.40;88.50;;;;;;5056219;28;20471;-78
2021/05/27 00:57:39;;;;;;;1.45;1.20;;;9.40;88.20;;;;;;5056259;28;20048;-78
2021/05/27 01:00:08;;;;;;;1.20;1.10;;;9.40;88.50;;;;;;5056258;28;20410;-79
2021/05/27 01:02:34;;;;;;;1.23;1.13;;;9.40;88.60;;;;;;5055715;28;20119;-79
2021/05/27 01:05:00;;;;;;;1.80;1.10;;;9.40;88.70;;;;;;5055970;28;20053;-79
2021/05/27 01:07:26;;;;;;;6.20;1.30;;;9.40;88.70;;;;;;5037949;28;20025;-78
2021/05/27 01:09:52;;;;;;;1.60;1.10;;;9.30;88.60;;;;;;5055197;28;20029;-78
2021/05/27 01:12:18;;;;;;;1.30;1.00;;;9.40;88.80;;;;;;5037309;28;20471;-78
2021/05/27 01:17:28;;;;;;;2.30;1.30;;;9.30;88.60;;;;;;5056061;28;20036;-79
2021/05/27 01:19:54;;;;;;;1.15;1.08;;;9.40;89.20;;;;;;5036536;28;20029;-78
2021/05/27 01:22:21;;;;;;;1.33;1.17;;;9.30;88.90;;;;;;5054789;28;20083;-77
2021/05/27 01:24:48;;;;;;;2.10;1.50;;;9.30;89.10;;;;;;5054812;28;20032;-79
2021/05/27 01:27:15;;;;;;;2.03;1.38;;;9.30;89.20;;;;;;5036874;28;20394;-77
2021/05/27 01:29:41;;;;;;;2.35;1.50;;;9.30;89.40;;;;;;5055110;28;20017;-78
2021/05/27 01:32:09;;;;;;;2.70;1.30;;;9.30;89.40;;;;;;5054800;28;20094;-78
2021/05/27 01:34:35;;;;;;;2.85;1.48;;;9.30;89.50;;;;;;5055266;28;20021;-77
2021/05/27 01:37:01;;;;;;;1.30;1.20;;;9.30;89.40;;;;;;5054598;28;20029;-78
2021/05/27 01:39:26;;;;;;;1.85;1.73;;;9.30;89.40;;;;;;5065266;28;20487;-77
2021/05/27 01:41:52;;;;;;;2.03;1.30;;;9.30;89.70;;;;;;5080033;28;20043;-78
2021/05/27 01:44:18;;;;;;;2.50;1.45;;;9.30;89.80;;;;;;5086880;28;20154;-77
2021/05/27 01:46:44;;;;;;;1.67;1.25;;;9.30;89.90;;;;;;5074986;28;20382;-77
2021/05/27 01:49:10;;;;;;;2.35;1.38;;;9.20;89.70;;;;;;5074596;28;20093;-79
2021/05/27 01:51:35;;;;;;;1.55;1.45;;;9.20;89.50;;;;;;5075252;28;20023;-79
2021/05/27 01:54:02;;;;;;;1.55;1.45;;;9.20;89.50;;;;;;5074613;28;20024;-78
2021/05/27 01:56:27;;;;;;;1.45;1.20;;;9.20;89.20;;;;;;5056701;28;20020;-78
2021/05/27 01:59:04;;;;;;;1.70;1.60;;;9.20;89.10;;;;;;5074644;28;20092;-79
2021/05/27 02:01:30;;;;;;;1.15;1.15;;;9.20;89.30;;;;;;5073765;28;20363;-80
2021/05/27 02:03:56;;;;;;;1.67;1.20;;;9.20;89.00;;;;;;5074842;28;20509;-80
2021/05/27 02:06:23;;;;;;;1.65;1.35;;;9.20;89.20;;;;;;5074740;28;20020;-80
2021/05/27 02:11:38;;;;;;;2.28;1.40;;;9.20;89.20;;;;;;5074741;28;20056;-80
2021/05/27 02:14:05;;;;;;;1.40;1.30;;;9.20;89.20;;;;;;5074318;28;20017;-79
2021/05/27 02:16:32;;;;;;;1.53;1.20;;;9.20;89.10;;;;;;5074474;28;20490;-79
2021/05/27 02:18:58;;;;;;;1.58;1.40;;;9.20;89.10;;;;;;5073740;28;20095;-79
2021/05/27 02:21:24;;;;;;;2.00;1.17;;;9.20;89.00;;;;;;5074345;28;20055;-79
2021/05/27 02:23:57;;;;;;;1.30;1.20;;;9.20;89.50;;;;;;5074197;28;20031;-80
2021/05/27 02:26:24;;;;;;;1.30;1.20;;;9.20;89.10;;;;;;5074360;28;20104;-78
2021/05/27 02:28:50;;;;;;;2.70;1.42;;;9.20;88.90;;;;;;5056030;28;20450;-80
2021/05/27 02:31:17;;;;;;;1.65;1.40;;;9.20;89.30;;;;;;5073763;28;20060;-80
2021/05/27 02:33:43;;;;;;;3.35;1.10;;;9.10;89.10;;;;;;5056641;28;20028;-80
2021/05/27 02:36:09;;;;;;;2.20;1.35;;;9.10;89.10;;;;;;5074447;28;20105;-80
2021/05/27 02:38:36;;;;;;;1.58;1.45;;;9.10;89.50;;;;;;5055554;28;20102;-79
2021/05/27 02:41:03;;;;;;;1.30;1.10;;;9.10;89.30;;;;;;5055921;28;20032;-78
2021/05/27 02:43:29;;;;;;;3.10;1.27;;;9.10;89.30;;;;;;5056175;28;20081;-78
2021/05/27 02:45:55;;;;;;;1.00;1.00;;;9.10;89.40;;;;;;5056400;28;20486;-79
2021/05/27 02:48:21;;;;;;;1.23;1.20;;;9.10;89.40;;;;;;5074224;28;20086;-79
2021/05/27 02:50:46;;;;;;;1.48;1.38;;;9.00;89.40;;;;;;5055885;28;20016;-79
2021/05/27 02:53:12;;;;;;;1.27;1.17;;;9.10;89.40;;;;;;5074141;28;20116;-80
2021/05/27 02:55:38;;;;;;;1.40;1.40;;;9.10;89.10;;;;;;5055657;28;20024;-79
2021/05/27 02:58:03;;;;;;;1.35;1.23;;;9.10;89.50;;;;;;5073641;28;20032;-79
2021/05/27 03:00:29;;;;;;;1.30;1.20;;;9.00;89.20;;;;;;5072986;28;20370;-79
2021/05/27 03:02:55;;;;;;;1.38;1.27;;;9.10;89.50;;;;;;5073435;28;20036;-78
2021/05/27 03:05:20;;;;;;;1.85;1.23;;;9.10;89.30;;;;;;5055859;28;20021;-79
2021/05/27 03:07:46;;;;;;;4.90;1.50;;;9.00;88.80;;;;;;5073917;28;20029;-79
2021/05/27 03:10:12;;;;;;;1.25;1.15;;;9.00;88.90;;;;;;5073933;28;20115;-78
2021/05/27 03:12:38;;;;;;;1.33;1.20;;;9.10;89.00;;;;;;5073438;28;20073;-78
2021/05/27 03:15:05;;;;;;;2.50;1.20;;;9.00;88.60;;;;;;5073699;28;20033;-79
2021/05/27 03:17:31;;;;;;;1.20;1.10;;;9.00;88.30;;;;;;5073461;28;20550;-79
2021/05/27 03:19:57;;;;;;;1.30;1.20;;;9.00;88.60;;;;;;5055605;28;20052;-79
2021/05/27 03:22:22;;;;;;;1.30;1.05;;;9.00;88.70;;;;;;5074295;28;20024;-79
2021/05/27 03:24:48;;;;;;;2.22;1.20;;;9.00;88.40;;;;;;5073615;28;20028;-80
2021/05/27 03:27:14;;;;;;;1.00;1.00;;;9.00;88.10;;;;;;5056300;28;20017;-80
2021/05/27 03:29:40;;;;;;;1.60;1.50;;;9.00;88.20;;;;;;5055945;28;20021;-80
2021/05/27 03:32:06;;;;;;;1.20;1.10;;;8.90;88.30;;;;;;5073111;28;20048;-79
2021/05/27 03:34:32;;;;;;;1.52;1.42;;;8.90;88.10;;;;;;5073032;28;20032;-80
2021/05/27 03:36:57;;;;;;;2.53;1.38;;;8.90;88.50;;;;;;5073504;28;20506;-79
2021/05/27 03:39:23;;;;;;;1.42;1.30;;;8.90;88.60;;;;;;5073753;28;20031;-80
2021/05/27 03:41:49;;;;;;;2.20;1.33;;;8.90;88.60;;;;;;5073767;28;20460;-80
2021/05/27 03:44:14;;;;;;;1.55;1.20;;;8.90;89.10;;;;;;5055285;28;20382;-80
2021/05/27 03:46:40;;;;;;;1.35;1.33;;;8.90;89.00;;;;;;5073213;28;20052;-80
2021/05/27 03:49:05;;;;;;;2.47;1.40;;;8.90;88.50;;;;;;5072603;28;20081;-79
2021/05/27 03:51:31;;;;;;;1.90;1.40;;;8.90;88.80;;;;;;5073022;28;20029;-80
2021/05/27 03:53:57;;;;;;;1.30;1.20;;;8.90;89.00;;;;;;5072805;28;20025;-80
2021/05/27 03:56:23;;;;;;;1.48;1.38;;;8.90;88.80;;;;;;5072785;28;20608;-80
2021/05/27 04:01:33;;;;;;;2.20;1.27;;;8.90;88.60;;;;;;5072259;28;20131;-80
2021/05/27 04:09:27;;;;;;;1.50;1.40;;;8.90;88.90;;;;;;5072614;28;20059;-80
2021/05/27 04:12:44;;;;;;;1.52;1.42;;;8.80;89.00;;;;;;5054496;28;20033;-79
2021/05/27 04:14:38;;;;;;;1.30;1.20;;;8.80;89.10;;;;;;5073034;28;20025;-79
2021/05/27 04:17:04;;;;;;;3.13;1.58;;;8.80;88.90;;;;;;5054704;28;20036;-80
2021/05/27 04:19:29;;;;;;;1.45;1.35;;;8.80;88.90;;;;;;5072679;28;20025;-80
2021/05/27 04:21:55;;;;;;;1.67;1.48;;;8.80;89.00;;;;;;5072649;28;20024;-80
2021/05/27 04:24:21;;;;;;;2.05;1.48;;;8.80;89.20;;;;;;5072903;28;20163;-79
2021/05/27 04:26:46;;;;;;;2.33;1.40;;;8.80;88.80;;;;;;5072838;28;20103;-79
2021/05/27 04:29:12;;;;;;;4.50;1.35;;;8.80;88.70;;;;;;5072324;28;20021;-80
2021/05/27 04:31:38;;;;;;;1.63;1.17;;;8.80;89.30;;;;;;5071738;28;20021;-80
2021/05/27 04:34:03;;;;;;;2.20;1.42;;;8.80;89.00;;;;;;5072141;28;20031;-79
2021/05/27 04:36:29;;;;;;;1.42;1.30;;;8.80;89.10;;;;;;5072512;28;20028;-79
2021/05/27 04:38:55;;;;;;;1.95;1.17;;;8.80;89.00;;;;;;5054496;28;20027;-80
2021/05/27 04:41:21;;;;;;;1.95;1.42;;;8.80;88.90;;;;;;5072228;28;20033;-80
2021/05/27 04:43:53;;;;;;;1.45;1.35;;;8.80;89.00;;;;;;5072137;28;20016;-79
2021/05/27 04:46:20;;;;;;;1.92;1.60;;;8.80;89.30;;;;;;5072570;28;20033;-80
2021/05/27 04:48:45;;;;;;;1.35;1.25;;;8.80;89.40;;;;;;5072191;28;20020;-80
2021/05/27 04:51:11;;;;;;;1.50;1.40;;;8.80;89.40;;;;;;5072313;28;20036;-80
2021/05/27 04:53:37;;;;;;;2.05;1.60;;;8.80;89.00;;;;;;5072534;28;20048;-80
2021/05/27 04:56:04;;;;;;;2.03;1.83;;;8.80;89.50;;;;;;5072490;28;20103;-78
2021/05/27 04:58:30;;;;;;;1.48;1.38;;;8.80;89.40;;;;;;5072420;28;20024;-79
2021/05/27 05:00:57;;;;;;;2.72;1.70;;;8.80;89.00;;;;;;5073422;28;20050;-79
2021/05/27 05:03:22;;;;;;;3.33;1.60;;;8.80;89.00;;;;;;5075880;28;20494;-79
2021/05/27 05:05:48;;;;;;;1.98;1.60;;;8.80;89.20;;;;;;5075798;28;20024;-79
2021/05/27 05:08:14;;;;;;;1.65;1.55;;;8.80;89.50;;;;;;5075895;28;20116;-79
2021/05/27 05:10:43;;;;;;;1.80;1.70;;;8.80;89.80;;;;;;5076319;28;20183;-80
2021/05/27 05:13:09;;;;;;;2.05;1.48;;;8.80;89.30;;;;;;5057763;28;20036;-79
2021/05/27 05:15:37;;;;;;;2.83;1.40;;;8.90;89.40;;;;;;5075813;28;20020;-80
2021/05/27 05:18:06;;;;;;;4.15;1.85;;;8.80;89.50;;;;;;5075555;28;20028;-79
2021/05/27 05:20:43;;;;;;;2.63;1.60;;;8.80;89.60;;;;;;5075389;28;20059;-81
2021/05/27 05:23:09;;;;;;;1.98;1.58;;;8.80;89.40;;;;;;5057914;28;20370;-79
2021/05/27 05:25:36;;;;;;;1.60;1.50;;;8.80;89.40;;;;;;5075640;28;20021;-79
2021/05/27 05:28:03;;;;;;;6.95;2.00;;;8.80;89.30;;;;;;5075884;28;20066;-81
2021/05/27 05:30:29;;;;;;;1.75;1.48;;;8.90;89.10;;;;;;5074847;28;20471;-78
2021/05/27 05:32:56;;;;;;;1.77;1.23;;;8.90;89.40;;;;;;5076032;28;20021;-81
2021/05/27 05:35:22;;;;;;;2.60;1.52;;;8.90;89.80;;;;;;5075997;28;20056;-80
2021/05/27 05:37:48;;;;;;;2.47;1.70;;;8.90;89.10;;;;;;5075569;28;20099;-78
2021/05/27 05:40:16;;;;;;;2.88;1.67;;;8.90;89.10;;;;;;5075826;28;20445;-80
2021/05/27 05:42:43;;;;;;;1.60;1.50;;;8.80;89.00;;;;;;5075548;28;20048;-77
2021/05/27 05:45:11;;;;;;;2.42;1.70;;;8.80;89.20;;;;;;5057427;28;20029;-80
2021/05/27 05:47:36;;;;;;;3.15;1.60;;;8.90;89.20;;;;;;5075226;28;20048;-77
2021/05/27 05:50:04;;;;;;;2.65;1.42;;;8.90;89.10;;;;;;5056971;28;20494;-79
2021/05/27 05:52:31;;;;;;;2.17;1.50;;;8.90;89.10;;;;;;5075879;28;20506;-78
2021/05/27 05:54:57;;;;;;;2.97;1.50;;;8.90;88.90;;;;;;5075273;28;20118;-78
2021/05/27 05:57:22;;;;;;;1.73;1.40;;;8.90;89.30;;;;;;5075039;28;20067;-78
2021/05/27 05:59:48;;;;;;;1.75;1.65;;;8.90;88.90;;;;;;5074885;28;20036;-79
2021/05/27 06:02:14;;;;;;;1.63;1.48;;;8.90;89.00;;;;;;5074296;28;20037;-79
2021/05/27 06:04:39;;;;;;;1.98;1.38;;;8.90;88.50;;;;;;5075593;28;20056;-78
2021/05/27 06:07:05;;;;;;;2.22;2.10;;;8.90;88.60;;;;;;5074776;28;20020;-79
2021/05/27 06:09:31;;;;;;;1.77;1.58;;;9.00;88.80;;;;;;5075433;28;20042;-78
2021/05/27 06:11:57;;;;;;;1.60;1.50;;;8.90;88.70;;;;;;5074225;28;20024;-79
2021/05/27 06:14:23;;;;;;;8.35;1.70;;;9.00;88.60;;;;;;5074965;28;20472;-79
2021/05/27 06:16:48;;;;;;;1.58;1.48;;;9.00;88.60;;;;;;5075507;28;20110;-79
2021/05/27 06:19:14;;;;;;;2.28;1.70;;;9.00;88.20;;;;;;5074856;28;20016;-78
2021/05/27 06:21:41;;;;;;;2.42;1.60;;;9.00;88.40;;;;;;5074874;28;20016;-78
2021/05/27 06:24:08;;;;;;;1.55;1.45;;;9.00;88.30;;;;;;5057182;28;20051;-79
2021/05/27 06:26:35;;;;;;;1.80;1.65;;;9.00;88.40;;;;;;5075434;28;20428;-80
2021/05/27 06:29:00;;;;;;;1.63;1.50;;;9.00;87.90;;;;;;5075525;28;20177;-78
2021/05/27 06:31:26;;;;;;;1.95;1.58;;;9.00;88.30;;;;;;5075148;28;20033;-80
2021/05/27 06:33:52;;;;;;;2.83;1.90;;;9.00;88.00;;;;;;5075413;28;20024;-79
2021/05/27 06:36:17;;;;;;;1.98;1.80;;;9.00;88.00;;;;;;5075449;28;20052;-80
2021/05/27 06:38:43;;;;;;;2.83;1.52;;;9.00;88.20;;;;;;5075609;28;20104;-78
2021/05/27 06:41:09;;;;;;;3.70;1.80;;;9.00;88.00;;;;;;5075242;28;20031;-79
2021/05/27 06:43:35;;;;;;;1.67;1.50;;;9.00;87.90;;;;;;5074639;28;20044;-79
2021/05/27 06:46:01;;;;;;;2.35;1.88;;;9.00;88.60;;;;;;5074509;28;20048;-78
2021/05/27 06:48:27;;;;;;;3.20;1.63;;;9.00;88.00;;;;;;5074474;28;20390;-80
2021/05/27 06:50:52;;;;;;;1.75;1.58;;;9.10;88.60;;;;;;5074757;28;20060;-79
2021/05/27 06:53:18;;;;;;;2.25;1.50;;;9.10;88.40;;;;;;5074859;28;20035;-79
2021/05/27 06:55:46;;;;;;;4.30;1.90;;;9.20;88.30;;;;;;5074730;28;20028;-77
2021/05/27 06:58:12;;;;;;;1.83;1.73;;;9.20;88.80;;;;;;5074448;28;20122;-80
2021/05/27 07:00:40;;;;;;;3.50;1.55;;;9.20;88.10;;;;;;5073762;28;20401;-80
2021/05/27 07:03:07;;;;;;;1.75;1.50;;;9.20;88.30;;;;;;5074346;28;20024;-80
2021/05/27 07:05:34;;;;;;;1.80;1.55;;;9.20;89.00;;;;;;5074208;28;20021;-79
2021/05/27 07:08:02;;;;;;;1.30;1.30;;;9.30;88.90;;;;;;5073814;28;20074;-78
2021/05/27 07:10:29;;;;;;;1.60;1.50;;;9.30;88.40;;;;;;5056775;28;20024;-79
2021/05/27 07:13:05;;;;;;;1.55;1.45;;;9.30;88.30;;;;;;5073849;28;20032;-79
2021/05/27 07:15:31;;;;;;;1.83;1.60;;;9.30;87.70;;;;;;5074446;28;20020;-79
2021/05/27 07:17:57;;;;;;;2.00;1.55;;;9.40;87.80;;;;;;5073819;28;20024;-80
2021/05/27 07:20:25;;;;;;;1.67;1.55;;;9.40;87.80;;;;;;5056077;28;20375;-80
2021/05/27 07:22:52;;;;;;;2.03;1.63;;;9.40;88.10;;;;;;5073570;28;20028;-78
2021/05/27 07:25:23;;;;;;;1.40;1.30;;;9.40;87.30;;;;;;5055943;28;20120;-79
2021/05/27 07:27:50;;;;;;;2.50;1.40;;;9.50;87.20;;;;;;5056453;28;20020;-79
2021/05/27 07:30:17;;;;;;;2.20;1.33;;;9.50;88.70;;;;;;5073286;28;20016;-78
2021/05/27 07:32:43;;;;;;;3.05;1.55;;;9.50;87.80;;;;;;5073769;28;20408;-78
2021/05/27 07:35:09;;;;;;;1.70;1.20;;;9.50;88.00;;;;;;5073811;28;20020;-79
2021/05/27 07:37:35;;;;;;;1.58;1.25;;;9.60;86.30;;;;;;5073657;28;20074;-79
2021/05/27 07:40:01;;;;;;;1.92;1.20;;;9.50;87.40;;;;;;5073691;28;20656;-79
2021/05/27 07:42:27;;;;;;;1.83;1.25;;;9.50;86.20;;;;;;5071933;28;20025;-78
2021/05/27 07:44:53;;;;;;;1.25;1.15;;;9.60;86.60;;;;;;5075548;28;20143;-79
2021/05/27 07:47:19;;;;;;;1.45;1.35;;;9.60;85.70;;;;;;5084656;28;20020;-81
2021/05/27 07:49:44;;;;;;;1.42;1.33;;;9.50;85.70;;;;;;5094040;28;20020;-79
2021/05/27 07:52:10;;;;;;;1.85;1.60;;;9.60;86.30;;;;;;5071179;28;20037;-79
2021/05/27 07:54:36;;;;;;;1.40;1.30;;;9.60;86.50;;;;;;5062054;28;20024;-79
2021/05/27 07:57:02;;;;;;;1.67;1.25;;;9.60;86.60;;;;;;5072450;28;20036;-78
2021/05/27 07:59:27;;;;;;;1.30;1.30;;;9.60;87.00;;;;;;5072795;28;20374;-79
2021/05/27 08:01:53;;;;;;;2.03;1.20;;;9.70;86.50;;;;;;5071774;28;20036;-79
2021/05/27 08:04:19;;;;;;;2.35;1.50;;;9.70;86.90;;;;;;5069381;28;20025;-79
2021/05/27 08:06:45;;;;;;;1.40;1.30;;;9.70;87.40;;;;;;5048746;28;20124;-79
2021/05/27 08:09:11;;;;;;;1.40;1.30;;;9.70;87.10;;;;;;5071230;28;20419;-78
2021/05/27 08:11:44;;;;;;;1.25;1.25;;;9.80;88.40;;;;;;5068380;28;20025;-79
2021/05/27 08:14:11;;;;;;;1.42;1.33;;;9.90;87.30;;;;;;5065453;28;20024;-79
2021/05/27 08:16:37;;;;;;;2.30;1.30;;;9.90;87.60;;;;;;5055039;28;20016;-79
2021/05/27 08:19:04;;;;;;;1.60;1.13;;;9.90;85.50;;;;;;5058616;28;20567;-79
2021/05/27 08:21:30;;;;;;;5.07;1.13;;;9.90;84.70;;;;;;5067984;28;20029;-79
2021/05/27 08:23:57;;;;;;;0.95;0.95;;;9.90;85.60;;;;;;5066159;28;20025;-79
2021/05/27 08:26:23;;;;;;;1.20;1.00;;;9.90;84.10;;;;;;5051533;28;20266;-78
2021/05/27 08:28:49;;;;;;;1.35;1.25;;;9.90;83.70;;;;;;5046958;28;20024;-78
2021/05/27 08:31:15;;;;;;;1.27;1.02;;;9.90;84.90;;;;;;5044972;28;20037;-78
2021/05/27 08:33:42;;;;;;;2.42;1.35;;;10.00;83.60;;;;;;5064637;28;20021;-78
2021/05/27 08:36:07;;;;;;;1.13;1.10;;;10.00;83.90;;;;;;5066613;28;20021;-79
2021/05/27 08:38:34;;;;;;;0.98;0.98;;;10.00;82.60;;;;;;5070500;28;20051;-79
2021/05/27 08:41:00;;;;;;;1.75;1.10;;;10.00;82.50;;;;;;5072968;28;20024;-80
2021/05/27 08:43:28;;;;;;;1.13;1.10;;;10.10;82.90;;;;;;5068837;28;20029;-79
2021/05/27 08:45:54;;;;;;;1.95;1.20;;;10.20;84.00;;;;;;5073691;28;20107;-79
2021/05/27 08:48:20;;;;;;;1.20;1.13;;;10.20;84.30;;;;;;5050770;28;20047;-79
2021/05/27 08:50:49;;;;;;;2.33;1.30;;;10.20;82.90;;;;;;5068123;28;20017;-80
2021/05/27 08:53:17;;;;;;;1.40;1.30;;;10.20;83.00;;;;;;5075904;28;20032;-78
2021/05/27 08:55:43;;;;;;;;;;;10.30;83.20;;;;;;5076670;28;20099;-79
2021/05/27 08:58:09;;;;;;;1.35;1.30;;;10.30;83.10;;;;;;5073805;28;19912;-78
2021/05/27 09:00:36;;;;;;;1.50;1.15;;;10.40;83.20;;;;;;5071452;28;20021;-79
2021/05/27 09:03:04;;;;;;;1.90;1.40;;;10.50;84.00;;;;;;5072895;28;20036;-79
2021/05/27 09:05:32;;;;;;;1.55;1.30;;;10.50;83.40;;;;;;5074383;28;20021;-78
2021/05/27 09:07:59;;;;;;;1.58;1.45;;;10.60;82.60;;;;;;5073114;28;20027;-79
2021/05/27 09:10:43;;;;;;;1.48;1.30;;;10.60;81.50;;;;;;5052860;28;20501;-79
2021/05/27 09:13:20;;;;;;;1.33;1.20;;;10.60;81.20;;;;;;5072303;28;20098;-79
2021/05/27 09:15:47;;;;;;;1.45;1.35;;;10.80;81.50;;;;;;5072694;28;20505;-79
2021/05/27 09:18:27;;;;;;;1.60;1.40;;;10.80;82.50;;;;;;5077675;28;20483;-79
2021/05/27 09:20:52;;;;;;;1.60;1.45;;;10.90;80.60;;;;;;5070118;28;20035;-79
2021/05/27 09:23:21;;;;;;;1.40;1.30;;;10.90;81.90;;;;;;5075443;28;20040;-79
2021/05/27 09:25:52;;;;;;;1.10;1.10;;;10.90;78.60;;;;;;5073954;28;20094;-79
2021/05/27 09:28:23;;;;;;;2.00;1.88;;;11.10;78.50;;;;;;5077392;28;20530;-79
2021/05/27 09:30:57;;;;;;;2.53;1.30;;;11.10;79.50;;;;;;5050032;28;20043;-79
2021/05/27 09:33:42;;;;;;;2.10;1.40;;;11.20;78.10;;;;;;5074132;28;20072;-79
2021/05/27 09:36:11;;;;;;;2.78;1.50;;;11.40;78.40;;;;;;5055507;28;20021;-78
2021/05/27 09:38:46;;;;;;;1.40;1.30;;;11.40;77.10;;;;;;5054352;28;20478;-78
2021/05/27 09:41:29;;;;;;;4.63;1.40;;;11.50;78.90;;;;;;5072387;28;20039;-78
2021/05/27 09:44:13;;;;;;;1.90;1.60;;;11.40;77.20;;;;;;5073158;28;20021;-79
2021/05/27 09:46:56;;;;;;;1.67;1.30;;;11.40;77.90;;;;;;5073029;28;20025;-78
2021/05/27 09:49:23;;;;;;;1.77;1.20;;;11.40;77.20;;;;;;5075174;28;20401;-79
2021/05/27 09:51:53;;;;;;;1.23;1.23;;;11.30;77.10;;;;;;5071233;28;20589;-78
2021/05/27 09:54:19;;;;;;;1.55;1.45;;;11.30;78.80;;;;;;5055274;28;20020;-78
2021/05/27 09:56:44;;;;;;;4.32;1.50;;;11.20;77.00;;;;;;5071335;28;20027;-77
2021/05/27 09:59:12;;;;;;;1.95;1.40;;;11.20;77.70;;;;;;5051680;28;20193;-78
2021/05/27 10:01:39;;;;;;;1.60;1.40;;;11.20;77.40;;;;;;5049991;28;20036;-78
2021/05/27 10:04:12;;;;;;;1.75;1.40;;;11.40;78.40;;;;;;5071811;28;21188;-78
2021/05/27 10:06:38;;;;;;;2.92;1.40;;;11.50;79.30;;;;;;5069557;28;20078;-77
2021/05/27 10:09:05;;;;;;;3.58;1.30;;;11.60;77.40;;;;;;5072450;28;20033;-78
2021/05/27 10:11:31;;;;;;;1.35;1.25;;;11.70;77.80;;;;;;5047153;28;20025;-79
2021/05/27 10:14:19;;;;;;;1.60;1.50;;;11.80;74.90;;;;;;5072808;28;20033;-79
2021/05/27 10:16:45;;;;;;;;;;;12.00;76.80;;;;;;5057005;28;20599;-80
2021/05/27 10:19:13;;;;;;;1.50;1.40;;;12.10;76.60;;;;;;5057124;28;19905;-80
2021/05/27 10:21:39;;;;;;;1.70;1.52;;;12.10;75.10;;;;;;5071254;28;20020;-79
2021/05/27 10:24:06;;;;;;;2.45;1.20;;;12.10;73.30;;;;;;5052505;28;20086;-79
2021/05/27 10:26:32;;;;;;;2.03;1.83;;;12.10;74.50;;;;;;5066278;28;20024;-79
2021/05/27 10:28:58;;;;;;;2.03;1.65;;;12.20;73.00;;;;;;5066408;28;20104;-80
2021/05/27 10:31:25;;;;;;;1.40;1.30;;;12.30;72.30;;;;;;5049801;28;20077;-80
2021/05/27 10:33:52;;;;;;;1.67;1.33;;;12.40;73.80;;;;;;5075835;28;20029;-81
2021/05/27 10:36:18;;;;;;;1.52;1.42;;;12.50;72.20;;;;;;5072581;28;20033;-80
2021/05/27 10:38:52;;;;;;;1.15;1.00;;;12.70;72.60;;;;;;5056420;28;20028;-80
2021/05/27 10:41:29;;;;;;;1.40;1.30;;;12.80;70.30;;;;;;5083073;28;20043;-79
2021/05/27 10:44:01;;;;;;;1.35;1.25;;;12.90;71.60;;;;;;5066394;28;20021;-80
2021/05/27 10:46:28;;;;;;;2.70;1.20;;;13.00;67.50;;;;;;5073484;28;20182;-78
2021/05/27 10:48:54;;;;;;;1.52;1.00;;;13.00;68.20;;;;;;5068286;28;20096;-81
2021/05/27 10:51:43;;;;;;;1.20;1.10;;;13.10;67.90;;;;;;5074341;28;20060;-81
2021/05/27 10:54:14;;;;;;;1.00;1.00;;;13.20;69.60;;;;;;5069814;28;20047;-80
2021/05/27 10:56:46;;;;;;;1.40;1.30;;;13.20;65.80;;;;;;5043454;28;20371;-80
2021/05/27 10:59:17;;;;;;;0.98;0.98;;;13.00;67.80;;;;;;5069560;28;20035;-80
2021/05/27 11:01:42;;;;;;;2.25;1.30;;;13.00;68.70;;;;;;5056478;28;20050;-79
2021/05/27 11:04:27;;;;;;;1.10;1.10;;;12.90;66.20;;;;;;5058898;28;20028;-79
2021/05/27 11:07:12;;;;;;;1.83;1.00;;;12.90;68.40;;;;;;5073821;28;20051;-80
2021/05/27 11:09:38;;;;;;;2.92;1.10;;;12.90;69.00;;;;;;5060903;28;20051;-80
2021/05/27 11:12:38;;;;;;;2.20;1.15;;;13.00;68.10;;;;;;5039908;28;20040;-80
2021/05/27 11:15:06;;;;;;;1.48;1.20;;;13.10;69.40;;;;;;5047131;28;20109;-80
2021/05/27 11:17:31;;;;;;;1.15;0.95;;;13.30;68.60;;;;;;5068420;28;20021;-80
2021/05/27 11:20:26;;;;;;;1.00;1.00;;;13.30;66.90;;;;;;5057385;28;20119;-80
2021/05/27 11:22:54;;;;;;;1.38;1.27;;;13.30;69.40;;;;;;5059152;28;20017;-81
2021/05/27 11:25:25;;;;;;;1.13;1.10;;;13.30;68.10;;;;;;5077595;28;20029;-80
2021/05/27 11:27:58;;;;;;;0.88;0.88;;;13.30;65.50;;;;;;5069205;28;20025;-80
2021/05/27 11:30:27;;;;;;;1.08;1.08;;;13.30;65.50;;;;;;5081748;28;20028;-81
2021/05/27 11:33:04;;;;;;;2.38;1.10;;;13.40;69.00;;;;;;5072833;28;20082;-80
2021/05/27 11:35:52;;;;;;;1.02;1.00;;;13.50;65.20;;;;;;5047959;28;20053;-81
2021/05/27 11:38:25;;;;;;;2.30;1.25;;;13.40;66.70;;;;;;5055738;28;20040;-79
2021/05/27 11:40:53;;;;;;;1.00;1.00;;;13.50;67.30;;;;;;5073791;28;20035;-80
2021/05/27 11:43:24;;;;;;;;;;;13.50;66.20;;;;;;5073415;28;20020;-80
2021/05/27 11:45:52;;;;;;;1.48;1.15;;;13.70;66.30;;;;;;5055181;28;20267;-80
2021/05/27 11:50:45;;;;;;;1.10;1.00;;;13.80;65.60;;;;;;5065286;28;20107;-79
2021/05/27 11:53:12;;;;;;;2.65;1.45;;;13.90;67.60;;;;;;5075461;28;20096;-81
2021/05/27 11:55:38;;;;;;;1.77;1.02;;;13.90;66.10;;;;;;5075536;28;20024;-81
2021/05/27 11:58:05;;;;;;;1.65;1.10;;;14.00;67.30;;;;;;5072125;28;20038;-81
2021/05/27 12:00:32;;;;;;;1.33;1.20;;;14.10;67.00;;;;;;5041284;28;20037;-81
2021/05/27 12:03:03;;;;;;;1.67;1.10;;;14.00;70.30;;;;;;5081585;28;20024;-81
2021/05/27 12:05:33;;;;;;;1.15;1.15;;;14.10;67.80;;;;;;5056126;28;20017;-81
2021/05/27 12:08:05;;;;;;;1.25;1.15;;;14.10;66.50;;;;;;5073557;28;20051;-80
2021/05/27 12:10:33;;;;;;;1.38;1.00;;;14.10;66.00;;;;;;5051252;28;20017;-81
2021/05/27 12:12:59;;;;;;;1.40;1.30;;;14.20;65.60;;;;;;5083523;28;20021;-81
2021/05/27 12:15:26;;;;;;;0.90;0.90;;;14.10;66.80;;;;;;5061634;28;20437;-80
2021/05/27 12:17:55;;;;;;;1.02;1.02;;;14.20;65.60;;;;;;5065383;28;20025;-81
2021/05/27 12:20:33;;;;;;;1.23;1.15;;;14.10;64.80;;;;;;5072044;28;20027;-80
2021/05/27 12:23:05;;;;;;;1.30;1.20;;;14.10;63.60;;;;;;5075401;28;20408;-80
2021/05/27 12:25:48;;;;;;;0.93;0.85;;;14.00;63.50;;;;;;5084958;28;20498;-80
2021/05/27 12:28:29;;;;;;;3.25;1.20;;;14.00;67.10;;;;;;5079763;28;20025;-80
2021/05/27 12:31:00;;;;;;;1.00;1.00;;;14.20;67.50;;;;;;5057536;28;20043;-81
2021/05/27 12:33:28;;;;;;;0.90;0.90;;;14.30;64.90;;;;;;5057757;28;20028;-80
2021/05/27 12:35:55;;;;;;;1.27;1.17;;;14.30;65.50;;;;;;5064198;28;20023;-80
2021/05/27 12:38:31;;;;;;;0.95;0.95;;;14.40;67.10;;;;;;5070699;28;20059;-80
2021/05/27 12:41:09;;;;;;;2.25;1.10;;;14.50;66.30;;;;;;5051733;28;20039;-80
2021/05/27 12:43:37;;;;;;;0.95;0.95;;;14.50;64.90;;;;;;5066064;28;20025;-80
2021/05/27 12:46:08;;;;;;;1.45;1.00;;;14.40;64.20;;;;;;5073544;28;20115;-80
2021/05/27 12:48:46;;;;;;;1.30;1.20;;;14.30;61.10;;;;;;5063035;28;20031;-80
2021/05/27 12:51:12;;;;;;;0.93;0.90;;;14.30;63.80;;;;;;5083537;28;20029;-80
2021/05/27 12:53:48;;;;;;;1.20;1.10;;;14.30;64.00;;;;;;5084447;28;20021;-80
2021/05/27 12:56:21;;;;;;;3.47;1.52;;;14.30;65.30;;;;;;5072298;28;20037;-80
2021/05/27 12:59:05;;;;;;;1.25;1.20;;;14.50;65.10;;;;;;5057682;28;20058;-80
2021/05/27 13:01:38;;;;;;;1.20;1.10;;;14.50;61.50;;;;;;5055816;28;20045;-80
2021/05/27 13:04:06;;;;;;;0.77;0.77;;;14.40;63.60;;;;;;5064722;28;20036;-80
2021/05/27 13:06:34;;;;;;;1.15;1.05;;;14.40;62.80;;;;;;5074705;28;20020;-80
2021/05/27 13:09:13;;;;;;;1.33;1.00;;;14.40;64.20;;;;;;5048457;28;20032;-81
2021/05/27 13:11:40;;;;;;;1.95;1.13;;;14.40;64.10;;;;;;5076210;28;20073;-81
2021/05/27 13:14:21;;;;;;;1.02;0.95;;;14.40;65.00;;;;;;5050312;28;20378;-80
2021/05/27 13:16:51;;;;;;;1.40;1.10;;;14.40;65.10;;;;;;5057824;28;20082;-81